createdAt,value
2023-04-03T00:00:02.685Z,100.00
2023-04-03T00:02:33.939Z,100.00
2023-04-03T00:05:02.558Z,100.00
2023-04-03T00:07:32.076Z,100.00
2023-04-03T00:10:00.143Z,100.00
2023-04-03T00:12:27.927Z,100.00
2023-04-03T00:15:00.194Z,100.00
2023-04-03T00:17:31.354Z,100.00
2023-04-03T00:20:05.136Z,100.00
2023-04-03T00:22:32.859Z,100.00
2023-04-03T00:25:00.901Z,100.00
2023-04-03T00:27:28.699Z,100.00
2023-04-03T00:29:56.588Z,100.00
2023-04-03T00:32:24.696Z,100.00
2023-04-03T00:34:52.860Z,100.00
2023-04-03T00:37:21.835Z,100.00
2023-04-03T00:39:49.693Z,100.00
2023-04-03T00:42:18.343Z,100.00
2023-04-03T00:45:00.789Z,100.00
2023-04-03T00:47:38.381Z,100.00
2023-04-03T00:50:13.192Z,100.00
2023-04-03T00:52:40.772Z,100.00
2023-04-03T00:55:10.193Z,100.00
2023-04-03T00:57:39.042Z,100.00
2023-04-03T01:00:11.075Z,100.00
2023-04-03T01:02:42.069Z,100.00
2023-04-03T01:05:12.124Z,100.00
2023-04-03T01:07:40.383Z,100.00
2023-04-03T01:10:11.194Z,100.00
2023-04-03T01:12:46.499Z,100.00
2023-04-03T01:15:41.196Z,100.00
2023-04-03T01:18:14.689Z,100.00
2023-04-03T01:21:38.546Z,100.00
2023-04-03T01:24:14.169Z,100.00
2023-04-03T01:26:52.039Z,100.00
2023-04-03T01:29:25.378Z,100.00
2023-04-03T01:31:56.761Z,100.00
2023-04-03T01:34:32.239Z,100.00
2023-04-03T01:37:00.574Z,100.00
2023-04-03T01:39:28.656Z,100.00
2023-04-03T01:42:15.135Z,100.00
2023-04-03T01:44:46.888Z,100.00
2023-04-03T01:53:25.418Z,100.00
2023-04-03T01:56:05.892Z,100.00
2023-04-03T01:58:44.226Z,100.00
2023-04-03T02:01:30.259Z,100.00
2023-04-03T02:03:58.044Z,100.00
2023-04-03T02:06:26.871Z,100.00
2023-04-03T02:08:55.231Z,100.00
2023-04-03T02:11:23.207Z,100.00
2023-04-03T02:13:51.154Z,100.00
2023-04-03T02:16:19.157Z,100.00
2023-04-03T02:18:56.131Z,100.00
2023-04-03T02:21:28.219Z,100.00
2023-04-03T02:27:07.641Z,100.00
2023-04-03T02:32:48.152Z,100.00
2023-04-03T02:35:21.987Z,100.00
2023-04-03T02:37:51.553Z,100.00
2023-04-03T02:40:24.189Z,100.00
2023-04-03T02:45:54.201Z,99.01
2023-04-03T02:48:27.302Z,100.00
2023-04-03T02:50:56.640Z,100.00
2023-04-03T02:53:48.850Z,100.00
2023-04-03T02:56:38.814Z,100.00
2023-04-03T02:59:11.199Z,100.00
2023-04-03T03:01:54.013Z,100.00
2023-04-03T03:05:02.574Z,100.00
2023-04-03T03:08:30.251Z,100.00
2023-04-03T03:11:39.295Z,100.00
2023-04-03T03:14:13.514Z,100.00
2023-04-03T03:17:06.402Z,100.00
2023-04-03T03:19:48.671Z,100.00
2023-04-03T03:22:54.327Z,99.56
2023-04-03T03:25:30.295Z,98.48
2023-04-03T03:28:30.722Z,97.85
2023-04-03T03:31:03.937Z,98.75
2023-04-03T03:33:37.003Z,99.08
2023-04-03T03:36:14.741Z,99.09
2023-04-03T03:38:50.567Z,99.03
2023-04-03T03:41:19.832Z,98.72
2023-04-03T03:43:53.280Z,98.41
2023-04-03T03:46:21.441Z,98.70
2023-04-03T03:48:57.277Z,98.96
2023-04-03T03:51:59.940Z,98.76
2023-04-03T03:54:49.970Z,99.10
2023-04-03T03:57:22.122Z,99.78
2023-04-03T03:59:53.106Z,99.24
2023-04-03T04:02:21.626Z,99.71
2023-04-03T04:08:23.442Z,98.61
2023-04-03T04:14:00.645Z,99.91
2023-04-03T04:16:30.874Z,99.82
2023-04-03T04:19:06.725Z,99.82
2023-04-03T04:21:52.143Z,99.56
2023-04-03T04:24:28.640Z,100.00
2023-04-03T04:27:17.879Z,99.87
2023-04-03T04:30:04.254Z,99.20
2023-04-03T04:32:50.872Z,98.72
2023-04-03T04:38:29.835Z,99.22
2023-04-03T04:41:34.094Z,99.66
2023-04-03T04:44:44.950Z,98.99
2023-04-03T04:47:23.096Z,99.96
2023-04-03T04:50:20.889Z,99.50
2023-04-03T04:53:44.943Z,99.41
2023-04-03T04:56:06.189Z,99.65
2023-04-03T04:58:36.282Z,99.71
2023-04-03T05:01:34.567Z,99.65
2023-04-03T05:04:21.249Z,99.43
2023-04-03T05:06:54.729Z,100.00
2023-04-03T05:09:44.142Z,100.00
2023-04-03T05:12:14.650Z,100.00
2023-04-03T05:14:51.205Z,100.00
2023-04-03T05:17:58.173Z,100.00
2023-04-03T05:20:46.310Z,100.00
2023-04-03T05:24:29.071Z,100.00
2023-04-03T05:30:33.309Z,100.00
2023-04-03T05:33:21.659Z,100.00
2023-04-03T05:36:15.768Z,100.00
2023-04-03T05:44:37.222Z,100.00
2023-04-03T05:47:09.059Z,100.00
2023-04-03T05:49:37.145Z,100.00
2023-04-03T05:52:05.316Z,100.00
2023-04-03T05:54:37.887Z,100.00
2023-04-03T05:57:54.575Z,100.00
2023-04-03T06:01:17.352Z,100.00
2023-04-03T06:03:56.547Z,100.00
2023-04-03T06:06:43.911Z,100.00
2023-04-03T06:09:15.081Z,100.00
2023-04-03T06:14:44.405Z,100.00
2023-04-03T06:17:20.072Z,100.00
2023-04-03T06:20:14.967Z,100.00
2023-04-03T06:22:52.623Z,100.00
2023-04-03T06:29:51.958Z,100.00
2023-04-03T06:32:53.282Z,100.00
2023-04-03T06:35:22.651Z,100.00
2023-04-03T06:37:51.591Z,100.00
2023-04-03T06:40:28.255Z,100.00
2023-04-03T06:43:22.445Z,100.00
2023-04-03T06:46:20.788Z,100.00
2023-04-03T06:49:01.772Z,100.00
2023-04-03T06:51:33.306Z,100.00
2023-04-03T06:54:20.488Z,100.00
2023-04-03T06:56:52.775Z,100.00
2023-04-03T06:59:21.423Z,100.00
2023-04-03T07:01:48.671Z,100.00
2023-04-03T07:04:18.179Z,100.00
2023-04-03T07:06:45.567Z,100.00
2023-04-03T07:09:12.507Z,100.00
2023-04-03T07:11:39.180Z,100.00
2023-04-03T07:14:33.131Z,100.00
2023-04-03T07:17:02.023Z,100.00
2023-04-03T07:19:30.032Z,100.00
2023-04-03T07:21:56.699Z,100.00
2023-04-03T07:24:23.767Z,100.00
2023-04-03T07:26:51.915Z,100.00
2023-04-03T07:29:50.469Z,99.43
2023-04-03T07:33:34.433Z,99.78
2023-04-03T07:36:11.088Z,98.67
2023-04-03T07:38:39.778Z,98.77
2023-04-03T07:41:10.213Z,98.06
2023-04-03T07:43:39.016Z,98.27
2023-04-03T07:46:07.992Z,97.19
2023-04-03T07:48:40.600Z,97.90
2023-04-03T07:51:09.499Z,97.63
2023-04-03T07:56:44.513Z,95.40
2023-04-03T07:59:43.160Z,94.05
2023-04-03T08:02:24.048Z,92.78
2023-04-03T08:04:53.252Z,92.20
2023-04-03T08:07:43.052Z,92.52
2023-04-03T08:10:12.873Z,91.29
2023-04-03T08:12:43.854Z,91.49
2023-04-03T08:15:14.769Z,90.97
2023-04-03T08:17:51.221Z,90.63
2023-04-03T08:23:55.164Z,85.40
2023-04-03T08:26:30.826Z,85.17
2023-04-03T08:29:42.719Z,86.37
2023-04-03T08:32:24.771Z,87.64
2023-04-03T08:35:03.039Z,87.35
2023-04-03T08:37:46.569Z,90.78
2023-04-03T08:40:18.828Z,90.39
2023-04-03T08:43:01.009Z,89.57
2023-04-03T08:46:19.654Z,85.05
2023-04-03T08:48:54.666Z,85.26
2023-04-03T08:51:23.939Z,84.34
2023-04-03T08:54:46.117Z,85.94
2023-04-03T09:03:56.260Z,88.87
2023-04-03T09:06:30.247Z,84.58
2023-04-03T09:09:30.040Z,85.11
2023-04-03T09:12:02.567Z,85.68
2023-04-03T09:15:03.027Z,88.01
2023-04-03T09:18:11.843Z,88.53
2023-04-03T09:21:09.380Z,88.90
2023-04-03T09:24:30.135Z,88.39
2023-04-03T09:27:05.730Z,88.50
2023-04-03T09:29:40.619Z,87.89
2023-04-03T09:32:28.064Z,86.74
2023-04-03T09:35:20.591Z,86.30
2023-04-03T09:41:44.080Z,89.45
2023-04-03T09:44:30.085Z,89.31
2023-04-03T09:47:28.178Z,86.19
2023-04-03T09:50:16.599Z,86.31
2023-04-03T09:52:55.004Z,85.11
2023-04-03T09:55:31.088Z,85.59
2023-04-03T09:58:49.842Z,84.09
2023-04-03T10:01:33.604Z,84.84
2023-04-03T10:05:36.709Z,82.09
2023-04-03T10:08:48.429Z,80.35
2023-04-03T10:11:48.573Z,80.11
2023-04-03T10:14:19.815Z,78.22
2023-04-03T10:17:18.296Z,79.87
2023-04-03T10:20:12.655Z,78.03
2023-04-03T10:22:53.164Z,79.15
2023-04-03T10:26:28.092Z,78.71
2023-04-03T10:33:21.428Z,81.16
2023-04-03T10:36:54.798Z,81.55
2023-04-03T10:40:24.672Z,82.02
2023-04-03T10:50:35.951Z,83.70
2023-04-03T10:54:01.586Z,82.92
2023-04-03T10:57:17.809Z,81.40
2023-04-03T11:00:26.754Z,82.69
2023-04-03T11:05:00.738Z,82.71
2023-04-03T11:11:43.373Z,78.33
2023-04-03T11:15:02.089Z,78.42
2023-04-03T11:18:29.424Z,78.78
2023-04-03T11:21:12.961Z,77.80
2023-04-03T11:23:49.368Z,78.61
2023-04-03T11:26:27.599Z,78.78
2023-04-03T11:29:18.013Z,79.10
2023-04-03T11:32:50.041Z,79.44
2023-04-03T11:36:27.138Z,78.24
2023-04-03T11:40:23.451Z,79.30
2023-04-03T11:43:50.489Z,77.14
2023-04-03T11:47:27.625Z,78.21
2023-04-03T11:50:09.133Z,77.14
2023-04-03T11:52:43.758Z,76.53
2023-04-03T11:55:59.791Z,72.54
2023-04-03T11:58:38.889Z,73.49
2023-04-03T12:02:08.183Z,72.15
2023-04-03T12:04:35.524Z,72.68
2023-04-03T12:07:19.986Z,72.78
2023-04-03T12:09:46.575Z,72.84
2023-04-03T12:12:52.414Z,72.96
2023-04-03T12:15:38.172Z,72.70
2023-04-03T12:18:57.654Z,72.12
2023-04-03T12:22:29.038Z,70.80
2023-04-03T12:25:26.328Z,72.56
2023-04-03T12:28:01.289Z,69.98
2023-04-03T12:31:11.347Z,69.45
2023-04-03T12:34:05.320Z,69.50
2023-04-03T12:37:04.008Z,69.93
2023-04-03T12:41:07.636Z,69.23
2023-04-03T12:43:53.215Z,69.65
2023-04-03T12:46:52.351Z,66.17
2023-04-03T12:49:52.692Z,67.34
2023-04-03T12:53:00.108Z,68.15
2023-04-03T12:59:22.066Z,66.53
2023-04-03T13:01:56.842Z,66.79
2023-04-03T13:04:24.246Z,67.42
2023-04-03T13:10:18.847Z,68.02
2023-04-03T13:12:56.082Z,68.01
2023-04-03T13:15:47.534Z,65.19
2023-04-03T13:18:53.402Z,65.22
2023-04-03T13:21:30.238Z,64.14
2023-04-03T13:24:14.599Z,65.96
2023-04-03T13:26:43.168Z,64.80
2023-04-03T13:29:32.185Z,66.21
2023-04-03T13:32:01.184Z,63.01
2023-04-03T13:34:36.690Z,65.02
2023-04-03T13:37:05.431Z,64.33
2023-04-03T13:39:38.038Z,63.55
2023-04-03T13:42:23.974Z,62.57
2023-04-03T13:45:25.081Z,64.25
2023-04-03T13:47:55.783Z,63.80
2023-04-03T13:50:26.617Z,64.24
2023-04-03T13:52:55.632Z,64.06
2023-04-03T13:55:58.567Z,64.01
2023-04-03T13:58:31.256Z,65.77
2023-04-03T14:01:11.177Z,63.10
2023-04-03T14:03:43.570Z,64.85
2023-04-03T14:06:16.423Z,63.31
2023-04-03T14:08:44.019Z,63.49
2023-04-03T14:11:18.684Z,63.96
2023-04-03T14:13:47.542Z,62.44
2023-04-03T14:16:17.940Z,63.39
2023-04-03T14:18:49.048Z,63.19
2023-04-03T14:21:17.812Z,64.15
2023-04-03T14:23:45.169Z,64.98
2023-04-03T14:26:15.021Z,65.32
2023-04-03T14:28:43.971Z,63.71
2023-04-03T14:31:20.258Z,63.69
2023-04-03T14:34:03.331Z,64.98
2023-04-03T14:36:42.588Z,64.92
2023-04-03T14:39:20.021Z,62.99
2023-04-03T14:41:52.798Z,63.79
2023-04-03T14:44:21.240Z,62.90
2023-04-03T14:49:30.573Z,61.38
2023-04-03T14:51:59.522Z,60.53
2023-04-03T14:54:29.280Z,60.50
2023-04-03T14:56:59.946Z,60.03
2023-04-03T14:59:29.724Z,58.95
2023-04-03T15:01:57.932Z,58.17
2023-04-03T15:04:45.215Z,57.60
2023-04-03T15:07:31.131Z,56.26
2023-04-03T15:10:17.067Z,56.31
2023-04-03T15:12:51.160Z,56.02
2023-04-03T15:15:21.917Z,57.88
2023-04-03T15:18:36.977Z,59.33
2023-04-03T15:21:08.402Z,60.38
2023-04-03T15:23:36.910Z,61.66
2023-04-03T15:26:06.479Z,62.17
2023-04-03T15:28:38.193Z,59.19
2023-04-03T15:31:09.987Z,58.38
2023-04-03T15:33:39.007Z,59.77
2023-04-03T15:36:17.175Z,58.89
2023-04-03T15:38:46.376Z,59.16
2023-04-03T15:41:17.983Z,57.87
2023-04-03T15:43:54.118Z,59.62
2023-04-03T15:46:56.000Z,58.69
2023-04-03T15:49:47.187Z,60.17
2023-04-03T15:52:17.413Z,60.60
2023-04-03T15:54:44.518Z,58.78
2023-04-03T15:57:11.221Z,57.73
2023-04-03T15:59:37.948Z,56.79
2023-04-03T16:02:07.587Z,55.71
2023-04-03T16:04:35.153Z,56.73
2023-04-03T16:07:03.545Z,58.31
2023-04-03T16:09:31.595Z,59.80
2023-04-03T16:11:58.265Z,58.64
2023-04-03T16:14:24.973Z,58.62
2023-04-03T16:16:51.650Z,58.96
2023-04-03T16:19:18.492Z,60.41
2023-04-03T16:21:45.327Z,60.07
2023-04-03T16:24:12.122Z,61.09
2023-04-03T16:26:38.789Z,61.88
2023-04-03T16:29:05.443Z,60.46
2023-04-03T16:31:33.711Z,60.38
2023-04-03T16:34:01.667Z,60.49
2023-04-03T16:36:28.425Z,59.46
2023-04-03T16:38:55.131Z,59.80
2023-04-03T16:41:21.816Z,59.26
2023-04-03T16:43:48.630Z,58.82
2023-04-03T16:46:15.625Z,58.77
2023-04-03T16:48:42.330Z,58.72
2023-04-03T16:51:08.983Z,58.80
2023-04-03T16:53:36.792Z,59.76
2023-04-03T16:56:03.437Z,58.09
2023-04-03T16:58:30.136Z,58.45
2023-04-03T17:00:56.909Z,57.50
2023-04-03T17:03:26.746Z,57.86
2023-04-03T17:05:53.562Z,58.85
2023-04-03T17:08:20.328Z,60.21
2023-04-03T17:10:47.933Z,60.31
2023-04-03T17:13:15.664Z,61.11
2023-04-03T17:15:42.679Z,60.15
2023-04-03T17:18:09.588Z,59.79
2023-04-03T17:20:38.765Z,59.77
2023-04-03T17:23:06.078Z,58.79
2023-04-03T17:25:32.824Z,60.18
2023-04-03T17:27:59.499Z,60.74
2023-04-03T17:30:26.155Z,60.49
2023-04-03T17:32:52.821Z,61.28
2023-04-03T17:35:19.566Z,61.46
2023-04-03T17:37:49.895Z,62.26
2023-04-03T17:40:18.742Z,62.99
2023-04-03T17:42:45.656Z,64.17
2023-04-03T17:45:12.424Z,64.70
2023-04-03T17:47:39.260Z,64.54
2023-04-03T17:50:06.836Z,64.92
2023-04-03T17:52:33.889Z,65.32
2023-04-03T17:55:00.540Z,65.72
2023-04-03T17:57:27.220Z,67.26
2023-04-03T17:59:54.265Z,67.02
2023-04-03T18:02:21.191Z,67.20
2023-04-03T18:04:47.872Z,67.32
2023-04-03T18:07:14.553Z,67.46
2023-04-03T18:09:42.108Z,66.94
2023-04-03T18:12:09.856Z,67.80
2023-04-03T18:14:38.302Z,67.39
2023-04-03T18:17:05.067Z,67.84
2023-04-03T18:19:32.461Z,68.22
2023-04-03T18:22:03.329Z,68.55
2023-04-03T18:24:33.906Z,69.17
2023-04-03T18:27:06.252Z,69.26
2023-04-03T18:29:34.003Z,69.64
2023-04-03T18:32:04.363Z,69.15
2023-04-03T18:34:31.933Z,69.67
2023-04-03T18:36:58.590Z,69.93
2023-04-03T18:39:27.020Z,70.21
2023-04-03T18:41:54.745Z,69.90
2023-04-03T18:44:24.195Z,70.00
2023-04-03T18:46:53.883Z,70.14
2023-04-03T18:49:21.083Z,70.39
2023-04-03T18:51:47.922Z,70.33
2023-04-03T18:54:14.668Z,70.51
2023-04-03T18:56:41.308Z,70.23
2023-04-03T18:59:08.047Z,69.97
2023-04-03T19:01:35.182Z,70.42
2023-04-03T19:04:02.426Z,70.65
2023-04-03T19:06:29.280Z,71.03
2023-04-03T19:08:56.365Z,69.87
2023-04-03T19:11:23.182Z,70.47
2023-04-03T19:16:20.070Z,71.02
2023-04-03T19:18:46.789Z,70.85
2023-04-03T19:21:14.878Z,70.96
2023-04-03T19:23:44.694Z,71.57
2023-04-03T19:26:13.710Z,71.20
2023-04-03T19:28:41.767Z,70.56
2023-04-03T19:31:20.976Z,71.27
2023-04-03T19:33:48.374Z,71.55
2023-04-03T19:36:16.088Z,71.52
2023-04-03T19:38:42.973Z,71.56
2023-04-03T19:41:17.403Z,71.35
2023-04-03T19:43:44.803Z,71.66
2023-04-03T19:46:11.988Z,72.15
2023-04-03T19:48:38.732Z,71.87
2023-04-03T19:51:06.230Z,71.81
2023-04-03T19:53:33.073Z,71.39
2023-04-03T19:56:00.921Z,71.00
2023-04-03T19:58:29.889Z,71.57
2023-04-03T20:00:57.785Z,72.29
2023-04-03T20:03:26.236Z,72.53
2023-04-03T20:05:54.192Z,72.73
2023-04-03T20:08:21.075Z,72.64
2023-04-03T20:10:47.799Z,72.42
2023-04-03T20:13:14.790Z,72.83
2023-04-03T20:15:43.691Z,72.16
2023-04-03T20:18:17.758Z,72.44
2023-04-03T20:20:55.401Z,72.79
2023-04-03T20:23:23.247Z,73.39
2023-04-03T20:26:05.988Z,73.92
2023-04-03T20:28:38.017Z,71.77
2023-04-03T20:31:05.175Z,70.59
2023-04-03T20:33:33.458Z,66.56
2023-04-03T20:36:02.037Z,65.08
2023-04-03T20:38:28.893Z,64.56
2023-04-03T20:40:55.817Z,64.65
2023-04-03T20:43:23.373Z,65.15
2023-04-03T20:45:50.952Z,65.37
2023-04-03T20:48:18.668Z,65.34
2023-04-03T20:50:46.475Z,64.61
2023-04-03T20:53:15.182Z,66.33
2023-04-03T20:55:42.520Z,65.67
2023-04-03T20:58:09.569Z,66.10
2023-04-03T21:00:38.010Z,66.85
2023-04-03T21:03:06.206Z,66.74
2023-04-03T21:05:34.850Z,67.47
2023-04-03T21:08:40.315Z,67.34
2023-04-03T21:11:44.805Z,67.72
2023-04-03T21:14:49.544Z,68.17
2023-04-03T21:17:16.464Z,68.02
2023-04-03T21:19:46.535Z,68.57
2023-04-03T21:22:13.974Z,69.35
2023-04-03T21:24:41.231Z,68.63
2023-04-03T21:27:08.419Z,69.11
2023-04-03T21:29:35.030Z,69.01
2023-04-03T21:32:02.225Z,69.01
2023-04-03T21:34:31.083Z,65.71
2023-04-03T21:37:02.921Z,65.56
2023-04-03T21:39:30.281Z,65.17
2023-04-03T21:41:57.167Z,64.67
2023-04-03T21:44:24.310Z,64.54
2023-04-03T21:46:54.650Z,65.11
2023-04-03T21:49:22.549Z,65.18
2023-04-03T21:51:51.513Z,65.75
2023-04-03T21:54:35.596Z,65.50
2023-04-03T21:57:34.314Z,66.12
2023-04-03T22:00:50.832Z,65.21
2023-04-03T22:07:30.060Z,63.37
2023-04-03T22:10:01.181Z,63.49
2023-04-03T22:13:00.757Z,63.97
2023-04-03T22:15:56.605Z,64.21
2023-04-03T22:18:53.930Z,64.11
2023-04-03T22:31:11.751Z,63.68
2023-04-03T22:33:43.742Z,64.39
2023-04-03T22:36:49.023Z,65.13
2023-04-03T22:39:25.741Z,64.98
2023-04-03T22:41:56.402Z,65.36
2023-04-03T22:44:34.992Z,66.04
2023-04-03T22:47:09.586Z,66.13
2023-04-03T22:49:40.746Z,66.11
2023-04-03T22:52:14.117Z,65.58
2023-04-03T22:54:53.463Z,66.27
2023-04-03T22:57:26.259Z,66.01
2023-04-03T22:59:57.063Z,66.04
2023-04-03T23:06:58.163Z,67.69
2023-04-03T23:09:41.462Z,66.90
2023-04-03T23:13:27.060Z,66.71
2023-04-03T23:16:20.924Z,67.31
2023-04-03T23:19:28.806Z,67.14
2023-04-03T23:22:09.968Z,68.19
2023-04-03T23:32:05.772Z,68.61
2023-04-03T23:35:03.979Z,68.90
2023-04-03T23:37:43.860Z,69.40
2023-04-03T23:40:20.867Z,70.11
2023-04-03T23:42:57.238Z,69.71
2023-04-03T23:45:53.536Z,69.93
2023-04-03T23:48:28.000Z,70.61
2023-04-03T23:51:32.359Z,70.64
2023-04-03T23:54:14.151Z,70.88
2023-04-03T23:57:01.301Z,71.09
2023-04-03T23:59:45.617Z,71.31
